<?xml version="1.0" encoding="UTF-8" ?>
		<gpx
		 version="1.0"
		 xmlns:xsi="http://www.w3.org/2001/XMLSchema-instance"
		 xmlns="http://www.topografix.com/GPX/1/0"
		 xsi:schemaLocation="http://www.topografix.com/GPX/1/0 http://www.topografix.com/GPX/1/0/gpx.xsd"
		 creator="http://www.openrunner.com">
			<trk>
				<name>OR-7915872--Mombarcaro:Salita dei Campioni - Fausto Coppi</name>
			    <trkseg>
	
			<trkpt lat="44.457200" lon="8.089430">
			 <ele>617</ele>
			<time>2017-11-10T16:04:44Z</time>
			</trkpt>
		
			<trkpt lat="44.457270" lon="8.089470">
			 <ele>618</ele>
			<time>2017-11-10T16:06:44Z</time>
			</trkpt>
		
			<trkpt lat="44.457340" lon="8.089490">
			 <ele>619</ele>
			<time>2017-11-10T16:08:44Z</time>
			</trkpt>
		
			<trkpt lat="44.457430" lon="8.089500">
			 <ele>621</ele>
			<time>2017-11-10T16:10:44Z</time>
			</trkpt>
		
			<trkpt lat="44.457750" lon="8.089550">
			 <ele>627</ele>
			<time>2017-11-10T16:12:44Z</time>
			</trkpt>
		
			<trkpt lat="44.457880" lon="8.089570">
			 <ele>630</ele>
			<time>2017-11-10T16:14:44Z</time>
			</trkpt>
		
			<trkpt lat="44.457980" lon="8.089590">
			 <ele>631</ele>
			<time>2017-11-10T16:16:44Z</time>
			</trkpt>
		
			<trkpt lat="44.458040" lon="8.089610">
			 <ele>632</ele>
			<time>2017-11-10T16:18:44Z</time>
			</trkpt>
		
			<trkpt lat="44.458120" lon="8.089640">
			 <ele>634</ele>
			<time>2017-11-10T16:20:44Z</time>
			</trkpt>
		
			<trkpt lat="44.458210" lon="8.089700">
			 <ele>634</ele>
			<time>2017-11-10T16:22:44Z</time>
			</trkpt>
		
			<trkpt lat="44.458300" lon="8.089760">
			 <ele>635</ele>
			<time>2017-11-10T16:24:44Z</time>
			</trkpt>
		
			<trkpt lat="44.458410" lon="8.089840">
			 <ele>636</ele>
			<time>2017-11-10T16:26:44Z</time>
			</trkpt>
		
			<trkpt lat="44.458570" lon="8.089960">
			 <ele>636</ele>
			<time>2017-11-10T16:28:44Z</time>
			</trkpt>
		
			<trkpt lat="44.458740" lon="8.090080">
			 <ele>639</ele>
			<time>2017-11-10T16:30:44Z</time>
			</trkpt>
		
			<trkpt lat="44.458830" lon="8.090140">
			 <ele>641</ele>
			<time>2017-11-10T16:32:44Z</time>
			</trkpt>
		
			<trkpt lat="44.458910" lon="8.090170">
			 <ele>643</ele>
			<time>2017-11-10T16:34:44Z</time>
			</trkpt>
		
			<trkpt lat="44.459020" lon="8.090200">
			 <ele>645</ele>
			<time>2017-11-10T16:36:44Z</time>
			</trkpt>
		
			<trkpt lat="44.459170" lon="8.090210">
			 <ele>647</ele>
			<time>2017-11-10T16:38:44Z</time>
			</trkpt>
		
			<trkpt lat="44.459250" lon="8.090230">
			 <ele>649</ele>
			<time>2017-11-10T16:40:44Z</time>
			</trkpt>
		
			<trkpt lat="44.459340" lon="8.090260">
			 <ele>651</ele>
			<time>2017-11-10T16:42:44Z</time>
			</trkpt>
		
			<trkpt lat="44.459420" lon="8.090280">
			 <ele>653</ele>
			<time>2017-11-10T16:44:44Z</time>
			</trkpt>
		
			<trkpt lat="44.459490" lon="8.090300">
			 <ele>655</ele>
			<time>2017-11-10T16:46:44Z</time>
			</trkpt>
		
			<trkpt lat="44.459520" lon="8.090300">
			 <ele>655</ele>
			<time>2017-11-10T16:48:44Z</time>
			</trkpt>
		
			<trkpt lat="44.459550" lon="8.090290">
			 <ele>656</ele>
			<time>2017-11-10T16:50:44Z</time>
			</trkpt>
		
			<trkpt lat="44.459570" lon="8.090270">
			 <ele>656</ele>
			<time>2017-11-10T16:52:44Z</time>
			</trkpt>
		
			<trkpt lat="44.459590" lon="8.090230">
			 <ele>657</ele>
			<time>2017-11-10T16:54:44Z</time>
			</trkpt>
		
			<trkpt lat="44.459600" lon="8.090200">
			 <ele>657</ele>
			<time>2017-11-10T16:56:44Z</time>
			</trkpt>
		
			<trkpt lat="44.459600" lon="8.090150">
			 <ele>657</ele>
			<time>2017-11-10T16:58:44Z</time>
			</trkpt>
		
			<trkpt lat="44.459590" lon="8.090120">
			 <ele>657</ele>
			<time>2017-11-10T17:00:44Z</time>
			</trkpt>
		
			<trkpt lat="44.459580" lon="8.090070">
			 <ele>656</ele>
			<time>2017-11-10T17:02:44Z</time>
			</trkpt>
		
			<trkpt lat="44.459550" lon="8.090040">
			 <ele>656</ele>
			<time>2017-11-10T17:04:44Z</time>
			</trkpt>
		
			<trkpt lat="44.459510" lon="8.090000">
			 <ele>655</ele>
			<time>2017-11-10T17:06:44Z</time>
			</trkpt>
		
			<trkpt lat="44.459460" lon="8.089960">
			 <ele>654</ele>
			<time>2017-11-10T17:08:44Z</time>
			</trkpt>
		
			<trkpt lat="44.459410" lon="8.089920">
			 <ele>654</ele>
			<time>2017-11-10T17:10:44Z</time>
			</trkpt>
		
			<trkpt lat="44.459350" lon="8.089850">
			 <ele>654</ele>
			<time>2017-11-10T17:12:44Z</time>
			</trkpt>
		
			<trkpt lat="44.459300" lon="8.089780">
			 <ele>655</ele>
			<time>2017-11-10T17:14:44Z</time>
			</trkpt>
		
			<trkpt lat="44.459250" lon="8.089690">
			 <ele>656</ele>
			<time>2017-11-10T17:16:44Z</time>
			</trkpt>
		
			<trkpt lat="44.459170" lon="8.089520">
			 <ele>658</ele>
			<time>2017-11-10T17:18:44Z</time>
			</trkpt>
		
			<trkpt lat="44.459090" lon="8.089350">
			 <ele>661</ele>
			<time>2017-11-10T17:20:44Z</time>
			</trkpt>
		
			<trkpt lat="44.458930" lon="8.089020">
			 <ele>663</ele>
			<time>2017-11-10T17:22:44Z</time>
			</trkpt>
		
			<trkpt lat="44.458840" lon="8.088850">
			 <ele>664</ele>
			<time>2017-11-10T17:24:44Z</time>
			</trkpt>
		
			<trkpt lat="44.458770" lon="8.088730">
			 <ele>664</ele>
			<time>2017-11-10T17:26:44Z</time>
			</trkpt>
		
			<trkpt lat="44.458730" lon="8.088680">
			 <ele>664</ele>
			<time>2017-11-10T17:28:44Z</time>
			</trkpt>
		
			<trkpt lat="44.458660" lon="8.088610">
			 <ele>663</ele>
			<time>2017-11-10T17:30:44Z</time>
			</trkpt>
		
			<trkpt lat="44.458580" lon="8.088500">
			 <ele>663</ele>
			<time>2017-11-10T17:32:44Z</time>
			</trkpt>
		
			<trkpt lat="44.458540" lon="8.088430">
			 <ele>663</ele>
			<time>2017-11-10T17:34:44Z</time>
			</trkpt>
		
			<trkpt lat="44.458530" lon="8.088400">
			 <ele>663</ele>
			<time>2017-11-10T17:36:44Z</time>
			</trkpt>
		
			<trkpt lat="44.458520" lon="8.088370">
			 <ele>663</ele>
			<time>2017-11-10T17:38:44Z</time>
			</trkpt>
		
			<trkpt lat="44.458520" lon="8.088340">
			 <ele>664</ele>
			<time>2017-11-10T17:40:44Z</time>
			</trkpt>
		
			<trkpt lat="44.458520" lon="8.088300">
			 <ele>664</ele>
			<time>2017-11-10T17:42:44Z</time>
			</trkpt>
		
			<trkpt lat="44.458520" lon="8.088270">
			 <ele>664</ele>
			<time>2017-11-10T17:44:44Z</time>
			</trkpt>
		
			<trkpt lat="44.458530" lon="8.088230">
			 <ele>663</ele>
			<time>2017-11-10T17:46:44Z</time>
			</trkpt>
		
			<trkpt lat="44.458550" lon="8.088200">
			 <ele>664</ele>
			<time>2017-11-10T17:48:44Z</time>
			</trkpt>
		
			<trkpt lat="44.458590" lon="8.088180">
			 <ele>664</ele>
			<time>2017-11-10T17:50:44Z</time>
			</trkpt>
		
			<trkpt lat="44.458620" lon="8.088160">
			 <ele>665</ele>
			<time>2017-11-10T17:52:44Z</time>
			</trkpt>
		
			<trkpt lat="44.458660" lon="8.088160">
			 <ele>665</ele>
			<time>2017-11-10T17:54:44Z</time>
			</trkpt>
		
			<trkpt lat="44.458700" lon="8.088160">
			 <ele>666</ele>
			<time>2017-11-10T17:56:44Z</time>
			</trkpt>
		
			<trkpt lat="44.458730" lon="8.088160">
			 <ele>667</ele>
			<time>2017-11-10T17:58:44Z</time>
			</trkpt>
		
			<trkpt lat="44.458830" lon="8.088180">
			 <ele>669</ele>
			<time>2017-11-10T18:00:44Z</time>
			</trkpt>
		
			<trkpt lat="44.458870" lon="8.088190">
			 <ele>670</ele>
			<time>2017-11-10T18:02:44Z</time>
			</trkpt>
		
			<trkpt lat="44.458900" lon="8.088190">
			 <ele>671</ele>
			<time>2017-11-10T18:04:44Z</time>
			</trkpt>
		
			<trkpt lat="44.458930" lon="8.088190">
			 <ele>671</ele>
			<time>2017-11-10T18:06:44Z</time>
			</trkpt>
		
			<trkpt lat="44.458970" lon="8.088170">
			 <ele>672</ele>
			<time>2017-11-10T18:08:44Z</time>
			</trkpt>
		
			<trkpt lat="44.459010" lon="8.088160">
			 <ele>673</ele>
			<time>2017-11-10T18:10:44Z</time>
			</trkpt>
		
			<trkpt lat="44.459070" lon="8.088140">
			 <ele>674</ele>
			<time>2017-11-10T18:12:44Z</time>
			</trkpt>
		
			<trkpt lat="44.459170" lon="8.088130">
			 <ele>676</ele>
			<time>2017-11-10T18:14:44Z</time>
			</trkpt>
		
			<trkpt lat="44.459380" lon="8.088140">
			 <ele>680</ele>
			<time>2017-11-10T18:16:44Z</time>
			</trkpt>
		
			<trkpt lat="44.459580" lon="8.088130">
			 <ele>684</ele>
			<time>2017-11-10T18:18:44Z</time>
			</trkpt>
		
			<trkpt lat="44.459770" lon="8.088110">
			 <ele>687</ele>
			<time>2017-11-10T18:20:44Z</time>
			</trkpt>
		
			<trkpt lat="44.459770" lon="8.088110">
			 <ele>687</ele>
			<time>2017-11-10T18:22:44Z</time>
			</trkpt>
		
			<trkpt lat="44.459740" lon="8.088220">
			 <ele>688</ele>
			<time>2017-11-10T18:24:44Z</time>
			</trkpt>
		
			<trkpt lat="44.459720" lon="8.088290">
			 <ele>688</ele>
			<time>2017-11-10T18:26:44Z</time>
			</trkpt>
		
			<trkpt lat="44.459710" lon="8.088320">
			 <ele>688</ele>
			<time>2017-11-10T18:28:44Z</time>
			</trkpt>
		
			<trkpt lat="44.459700" lon="8.088370">
			 <ele>688</ele>
			<time>2017-11-10T18:30:44Z</time>
			</trkpt>
		
			<trkpt lat="44.459700" lon="8.088420">
			 <ele>687</ele>
			<time>2017-11-10T18:32:44Z</time>
			</trkpt>
		
			<trkpt lat="44.459700" lon="8.088470">
			 <ele>687</ele>
			<time>2017-11-10T18:34:44Z</time>
			</trkpt>
		
			<trkpt lat="44.459710" lon="8.088520">
			 <ele>686</ele>
			<time>2017-11-10T18:36:44Z</time>
			</trkpt>
		
			<trkpt lat="44.459720" lon="8.088580">
			 <ele>686</ele>
			<time>2017-11-10T18:38:44Z</time>
			</trkpt>
		
			<trkpt lat="44.459740" lon="8.088660">
			 <ele>686</ele>
			<time>2017-11-10T18:40:44Z</time>
			</trkpt>
		
			<trkpt lat="44.459760" lon="8.088710">
			 <ele>685</ele>
			<time>2017-11-10T18:42:44Z</time>
			</trkpt>
		
			<trkpt lat="44.459780" lon="8.088760">
			 <ele>685</ele>
			<time>2017-11-10T18:44:44Z</time>
			</trkpt>
		
			<trkpt lat="44.459830" lon="8.088830">
			 <ele>686</ele>
			<time>2017-11-10T18:46:44Z</time>
			</trkpt>
		
			<trkpt lat="44.459920" lon="8.088890">
			 <ele>687</ele>
			<time>2017-11-10T18:48:44Z</time>
			</trkpt>
		
			<trkpt lat="44.459970" lon="8.088940">
			 <ele>688</ele>
			<time>2017-11-10T18:50:44Z</time>
			</trkpt>
		
			<trkpt lat="44.460040" lon="8.089020">
			 <ele>688</ele>
			<time>2017-11-10T18:52:44Z</time>
			</trkpt>
		
			<trkpt lat="44.460130" lon="8.089090">
			 <ele>690</ele>
			<time>2017-11-10T18:54:44Z</time>
			</trkpt>
		
			<trkpt lat="44.460270" lon="8.089180">
			 <ele>693</ele>
			<time>2017-11-10T18:56:44Z</time>
			</trkpt>
		
			<trkpt lat="44.460420" lon="8.089240">
			 <ele>695</ele>
			<time>2017-11-10T18:58:44Z</time>
			</trkpt>
		
			<trkpt lat="44.460520" lon="8.089300">
			 <ele>696</ele>
			<time>2017-11-10T19:00:44Z</time>
			</trkpt>
		
			<trkpt lat="44.460620" lon="8.089360">
			 <ele>698</ele>
			<time>2017-11-10T19:02:44Z</time>
			</trkpt>
		
			<trkpt lat="44.460730" lon="8.089460">
			 <ele>699</ele>
			<time>2017-11-10T19:04:44Z</time>
			</trkpt>
		
			<trkpt lat="44.460930" lon="8.089690">
			 <ele>701</ele>
			<time>2017-11-10T19:06:44Z</time>
			</trkpt>
		
			<trkpt lat="44.461070" lon="8.089870">
			 <ele>702</ele>
			<time>2017-11-10T19:08:44Z</time>
			</trkpt>
		
			<trkpt lat="44.461150" lon="8.089980">
			 <ele>703</ele>
			<time>2017-11-10T19:10:44Z</time>
			</trkpt>
		
			<trkpt lat="44.461430" lon="8.090350">
			 <ele>707</ele>
			<time>2017-11-10T19:12:44Z</time>
			</trkpt>
		
			<trkpt lat="44.461580" lon="8.090520">
			 <ele>709</ele>
			<time>2017-11-10T19:14:44Z</time>
			</trkpt>
		
			<trkpt lat="44.461770" lon="8.090760">
			 <ele>711</ele>
			<time>2017-11-10T19:16:44Z</time>
			</trkpt>
		
			<trkpt lat="44.461850" lon="8.090850">
			 <ele>713</ele>
			<time>2017-11-10T19:18:44Z</time>
			</trkpt>
		
			<trkpt lat="44.461890" lon="8.090920">
			 <ele>715</ele>
			<time>2017-11-10T19:20:44Z</time>
			</trkpt>
		
			<trkpt lat="44.461940" lon="8.091040">
			 <ele>717</ele>
			<time>2017-11-10T19:22:44Z</time>
			</trkpt>
		
			<trkpt lat="44.461950" lon="8.091110">
			 <ele>718</ele>
			<time>2017-11-10T19:24:44Z</time>
			</trkpt>
		
			<trkpt lat="44.461950" lon="8.091180">
			 <ele>718</ele>
			<time>2017-11-10T19:26:44Z</time>
			</trkpt>
		
			<trkpt lat="44.461940" lon="8.091250">
			 <ele>718</ele>
			<time>2017-11-10T19:28:44Z</time>
			</trkpt>
		
			<trkpt lat="44.461920" lon="8.091320">
			 <ele>717</ele>
			<time>2017-11-10T19:30:44Z</time>
			</trkpt>
		
			<trkpt lat="44.461890" lon="8.091350">
			 <ele>716</ele>
			<time>2017-11-10T19:32:44Z</time>
			</trkpt>
		
			<trkpt lat="44.461860" lon="8.091360">
			 <ele>716</ele>
			<time>2017-11-10T19:34:44Z</time>
			</trkpt>
		
			<trkpt lat="44.461830" lon="8.091380">
			 <ele>715</ele>
			<time>2017-11-10T19:36:44Z</time>
			</trkpt>
		
			<trkpt lat="44.461770" lon="8.091380">
			 <ele>713</ele>
			<time>2017-11-10T19:38:44Z</time>
			</trkpt>
		
			<trkpt lat="44.461730" lon="8.091380">
			 <ele>712</ele>
			<time>2017-11-10T19:40:44Z</time>
			</trkpt>
		
			<trkpt lat="44.461680" lon="8.091380">
			 <ele>710</ele>
			<time>2017-11-10T19:42:44Z</time>
			</trkpt>
		
			<trkpt lat="44.461620" lon="8.091380">
			 <ele>709</ele>
			<time>2017-11-10T19:44:44Z</time>
			</trkpt>
		
			<trkpt lat="44.461580" lon="8.091390">
			 <ele>708</ele>
			<time>2017-11-10T19:46:44Z</time>
			</trkpt>
		
			<trkpt lat="44.461530" lon="8.091400">
			 <ele>707</ele>
			<time>2017-11-10T19:48:44Z</time>
			</trkpt>
		
			<trkpt lat="44.461490" lon="8.091420">
			 <ele>706</ele>
			<time>2017-11-10T19:50:44Z</time>
			</trkpt>
		
			<trkpt lat="44.461450" lon="8.091450">
			 <ele>706</ele>
			<time>2017-11-10T19:52:44Z</time>
			</trkpt>
		
			<trkpt lat="44.461400" lon="8.091490">
			 <ele>705</ele>
			<time>2017-11-10T19:54:44Z</time>
			</trkpt>
		
			<trkpt lat="44.461280" lon="8.091600">
			 <ele>704</ele>
			<time>2017-11-10T19:56:44Z</time>
			</trkpt>
		
			<trkpt lat="44.461120" lon="8.091800">
			 <ele>705</ele>
			<time>2017-11-10T19:58:44Z</time>
			</trkpt>
		
			<trkpt lat="44.460910" lon="8.092050">
			 <ele>707</ele>
			<time>2017-11-10T20:00:44Z</time>
			</trkpt>
		
			<trkpt lat="44.460820" lon="8.092170">
			 <ele>708</ele>
			<time>2017-11-10T20:02:44Z</time>
			</trkpt>
		
			<trkpt lat="44.460710" lon="8.092280">
			 <ele>710</ele>
			<time>2017-11-10T20:04:44Z</time>
			</trkpt>
		
			<trkpt lat="44.460580" lon="8.092370">
			 <ele>710</ele>
			<time>2017-11-10T20:06:44Z</time>
			</trkpt>
		
			<trkpt lat="44.460360" lon="8.092520">
			 <ele>711</ele>
			<time>2017-11-10T20:08:44Z</time>
			</trkpt>
		
			<trkpt lat="44.460050" lon="8.092720">
			 <ele>711</ele>
			<time>2017-11-10T20:10:44Z</time>
			</trkpt>
		
			<trkpt lat="44.459770" lon="8.092910">
			 <ele>709</ele>
			<time>2017-11-10T20:12:44Z</time>
			</trkpt>
		
			<trkpt lat="44.459710" lon="8.092960">
			 <ele>708</ele>
			<time>2017-11-10T20:14:44Z</time>
			</trkpt>
		
			<trkpt lat="44.459670" lon="8.093010">
			 <ele>708</ele>
			<time>2017-11-10T20:16:44Z</time>
			</trkpt>
		
			<trkpt lat="44.459650" lon="8.093050">
			 <ele>708</ele>
			<time>2017-11-10T20:18:44Z</time>
			</trkpt>
		
			<trkpt lat="44.459640" lon="8.093090">
			 <ele>708</ele>
			<time>2017-11-10T20:20:44Z</time>
			</trkpt>
		
			<trkpt lat="44.459630" lon="8.093120">
			 <ele>709</ele>
			<time>2017-11-10T20:22:44Z</time>
			</trkpt>
		
			<trkpt lat="44.459630" lon="8.093150">
			 <ele>709</ele>
			<time>2017-11-10T20:24:44Z</time>
			</trkpt>
		
			<trkpt lat="44.459620" lon="8.093180">
			 <ele>709</ele>
			<time>2017-11-10T20:26:44Z</time>
			</trkpt>
		
			<trkpt lat="44.459630" lon="8.093200">
			 <ele>710</ele>
			<time>2017-11-10T20:28:44Z</time>
			</trkpt>
		
			<trkpt lat="44.459630" lon="8.093260">
			 <ele>710</ele>
			<time>2017-11-10T20:30:44Z</time>
			</trkpt>
		
			<trkpt lat="44.459640" lon="8.093300">
			 <ele>711</ele>
			<time>2017-11-10T20:32:44Z</time>
			</trkpt>
		
			<trkpt lat="44.459670" lon="8.093400">
			 <ele>712</ele>
			<time>2017-11-10T20:34:44Z</time>
			</trkpt>
		
			<trkpt lat="44.459710" lon="8.093560">
			 <ele>713</ele>
			<time>2017-11-10T20:36:44Z</time>
			</trkpt>
		
			<trkpt lat="44.459730" lon="8.093650">
			 <ele>714</ele>
			<time>2017-11-10T20:38:44Z</time>
			</trkpt>
		
			<trkpt lat="44.459750" lon="8.093750">
			 <ele>714</ele>
			<time>2017-11-10T20:40:44Z</time>
			</trkpt>
		
			<trkpt lat="44.459750" lon="8.093800">
			 <ele>714</ele>
			<time>2017-11-10T20:42:44Z</time>
			</trkpt>
		
			<trkpt lat="44.459760" lon="8.093840">
			 <ele>714</ele>
			<time>2017-11-10T20:44:44Z</time>
			</trkpt>
		
			<trkpt lat="44.459770" lon="8.093900">
			 <ele>715</ele>
			<time>2017-11-10T20:46:44Z</time>
			</trkpt>
		
			<trkpt lat="44.459770" lon="8.093960">
			 <ele>715</ele>
			<time>2017-11-10T20:48:44Z</time>
			</trkpt>
		
			<trkpt lat="44.459780" lon="8.094060">
			 <ele>715</ele>
			<time>2017-11-10T20:50:44Z</time>
			</trkpt>
		
			<trkpt lat="44.459780" lon="8.094150">
			 <ele>715</ele>
			<time>2017-11-10T20:52:44Z</time>
			</trkpt>
		
			<trkpt lat="44.459790" lon="8.094210">
			 <ele>715</ele>
			<time>2017-11-10T20:54:44Z</time>
			</trkpt>
		
			<trkpt lat="44.459800" lon="8.094290">
			 <ele>715</ele>
			<time>2017-11-10T20:56:44Z</time>
			</trkpt>
		
			<trkpt lat="44.459810" lon="8.094340">
			 <ele>715</ele>
			<time>2017-11-10T20:58:44Z</time>
			</trkpt>
		
			<trkpt lat="44.459820" lon="8.094440">
			 <ele>715</ele>
			<time>2017-11-10T21:00:44Z</time>
			</trkpt>
		
			<trkpt lat="44.459850" lon="8.094590">
			 <ele>716</ele>
			<time>2017-11-10T21:02:44Z</time>
			</trkpt>
		
			<trkpt lat="44.459880" lon="8.094720">
			 <ele>717</ele>
			<time>2017-11-10T21:04:44Z</time>
			</trkpt>
		
			<trkpt lat="44.459900" lon="8.094830">
			 <ele>717</ele>
			<time>2017-11-10T21:06:44Z</time>
			</trkpt>
		
			<trkpt lat="44.459910" lon="8.094890">
			 <ele>717</ele>
			<time>2017-11-10T21:08:44Z</time>
			</trkpt>
		
			<trkpt lat="44.459910" lon="8.094950">
			 <ele>717</ele>
			<time>2017-11-10T21:10:44Z</time>
			</trkpt>
		
			<trkpt lat="44.459920" lon="8.094990">
			 <ele>717</ele>
			<time>2017-11-10T21:12:44Z</time>
			</trkpt>
		
			<trkpt lat="44.459930" lon="8.095100">
			 <ele>717</ele>
			<time>2017-11-10T21:14:44Z</time>
			</trkpt>
		
			<trkpt lat="44.459940" lon="8.095200">
			 <ele>718</ele>
			<time>2017-11-10T21:16:44Z</time>
			</trkpt>
		
			<trkpt lat="44.459950" lon="8.095330">
			 <ele>718</ele>
			<time>2017-11-10T21:18:44Z</time>
			</trkpt>
		
			<trkpt lat="44.459960" lon="8.095420">
			 <ele>718</ele>
			<time>2017-11-10T21:20:44Z</time>
			</trkpt>
		
			<trkpt lat="44.459970" lon="8.095510">
			 <ele>718</ele>
			<time>2017-11-10T21:22:44Z</time>
			</trkpt>
		
			<trkpt lat="44.459990" lon="8.095600">
			 <ele>719</ele>
			<time>2017-11-10T21:24:44Z</time>
			</trkpt>
		
			<trkpt lat="44.460000" lon="8.095650">
			 <ele>719</ele>
			<time>2017-11-10T21:26:44Z</time>
			</trkpt>
		
			<trkpt lat="44.460020" lon="8.095690">
			 <ele>720</ele>
			<time>2017-11-10T21:28:44Z</time>
			</trkpt>
		
			<trkpt lat="44.460040" lon="8.095740">
			 <ele>721</ele>
			<time>2017-11-10T21:30:44Z</time>
			</trkpt>
		
			<trkpt lat="44.460100" lon="8.095840">
			 <ele>723</ele>
			<time>2017-11-10T21:32:44Z</time>
			</trkpt>
		
			<trkpt lat="44.460160" lon="8.095950">
			 <ele>725</ele>
			<time>2017-11-10T21:34:44Z</time>
			</trkpt>
		
			<trkpt lat="44.460250" lon="8.096090">
			 <ele>727</ele>
			<time>2017-11-10T21:36:44Z</time>
			</trkpt>
		
			<trkpt lat="44.460310" lon="8.096220">
			 <ele>729</ele>
			<time>2017-11-10T21:38:44Z</time>
			</trkpt>
		
			<trkpt lat="44.460340" lon="8.096310">
			 <ele>730</ele>
			<time>2017-11-10T21:40:44Z</time>
			</trkpt>
		
			<trkpt lat="44.460360" lon="8.096370">
			 <ele>730</ele>
			<time>2017-11-10T21:42:44Z</time>
			</trkpt>
		
			<trkpt lat="44.460370" lon="8.096410">
			 <ele>730</ele>
			<time>2017-11-10T21:44:44Z</time>
			</trkpt>
		
			<trkpt lat="44.460380" lon="8.096450">
			 <ele>730</ele>
			<time>2017-11-10T21:46:44Z</time>
			</trkpt>
		
			<trkpt lat="44.460380" lon="8.096470">
			 <ele>730</ele>
			<time>2017-11-10T21:48:44Z</time>
			</trkpt>
		
			<trkpt lat="44.460390" lon="8.096530">
			 <ele>730</ele>
			<time>2017-11-10T21:50:44Z</time>
			</trkpt>
		
			<trkpt lat="44.460400" lon="8.096610">
			 <ele>730</ele>
			<time>2017-11-10T21:52:44Z</time>
			</trkpt>
		
			<trkpt lat="44.460410" lon="8.096670">
			 <ele>730</ele>
			<time>2017-11-10T21:54:44Z</time>
			</trkpt>
		
			<trkpt lat="44.460410" lon="8.096730">
			 <ele>730</ele>
			<time>2017-11-10T21:56:44Z</time>
			</trkpt>
		
			<trkpt lat="44.460450" lon="8.097160">
			 <ele>730</ele>
			<time>2017-11-10T21:58:44Z</time>
			</trkpt>
		
			<trkpt lat="44.460450" lon="8.097200">
			 <ele>730</ele>
			<time>2017-11-10T22:00:44Z</time>
			</trkpt>
		
			<trkpt lat="44.460460" lon="8.097280">
			 <ele>730</ele>
			<time>2017-11-10T22:02:44Z</time>
			</trkpt>
		
			<trkpt lat="44.460470" lon="8.097360">
			 <ele>730</ele>
			<time>2017-11-10T22:04:44Z</time>
			</trkpt>
		
			<trkpt lat="44.460490" lon="8.097490">
			 <ele>730</ele>
			<time>2017-11-10T22:06:44Z</time>
			</trkpt>
		
			<trkpt lat="44.460500" lon="8.097590">
			 <ele>730</ele>
			<time>2017-11-10T22:08:44Z</time>
			</trkpt>
		
			<trkpt lat="44.460510" lon="8.097710">
			 <ele>730</ele>
			<time>2017-11-10T22:10:44Z</time>
			</trkpt>
		
			<trkpt lat="44.460510" lon="8.097800">
			 <ele>730</ele>
			<time>2017-11-10T22:12:44Z</time>
			</trkpt>
		
			<trkpt lat="44.460530" lon="8.097940">
			 <ele>731</ele>
			<time>2017-11-10T22:14:44Z</time>
			</trkpt>
		
			<trkpt lat="44.460550" lon="8.098140">
			 <ele>731</ele>
			<time>2017-11-10T22:16:44Z</time>
			</trkpt>
		
			<trkpt lat="44.460570" lon="8.098200">
			 <ele>731</ele>
			<time>2017-11-10T22:18:44Z</time>
			</trkpt>
		
			<trkpt lat="44.460590" lon="8.098270">
			 <ele>731</ele>
			<time>2017-11-10T22:20:44Z</time>
			</trkpt>
		
			<trkpt lat="44.460610" lon="8.098330">
			 <ele>731</ele>
			<time>2017-11-10T22:22:44Z</time>
			</trkpt>
		
			<trkpt lat="44.460630" lon="8.098380">
			 <ele>731</ele>
			<time>2017-11-10T22:24:44Z</time>
			</trkpt>
		
			<trkpt lat="44.460670" lon="8.098420">
			 <ele>731</ele>
			<time>2017-11-10T22:26:44Z</time>
			</trkpt>
		
			<trkpt lat="44.460720" lon="8.098470">
			 <ele>730</ele>
			<time>2017-11-10T22:28:44Z</time>
			</trkpt>
		
			<trkpt lat="44.460720" lon="8.098470">
			 <ele>730</ele>
			<time>2017-11-10T22:30:44Z</time>
			</trkpt>
		
			<trkpt lat="44.460730" lon="8.098460">
			 <ele>731</ele>
			<time>2017-11-10T22:32:44Z</time>
			</trkpt>
		
			<trkpt lat="44.460860" lon="8.098160">
			 <ele>734</ele>
			<time>2017-11-10T22:34:44Z</time>
			</trkpt>
		
			<trkpt lat="44.460940" lon="8.097950">
			 <ele>734</ele>
			<time>2017-11-10T22:36:44Z</time>
			</trkpt>
		
			<trkpt lat="44.460990" lon="8.097810">
			 <ele>735</ele>
			<time>2017-11-10T22:38:44Z</time>
			</trkpt>
		
			<trkpt lat="44.461020" lon="8.097660">
			 <ele>737</ele>
			<time>2017-11-10T22:40:44Z</time>
			</trkpt>
		
			<trkpt lat="44.461030" lon="8.097580">
			 <ele>738</ele>
			<time>2017-11-10T22:42:44Z</time>
			</trkpt>
		
			<trkpt lat="44.461040" lon="8.097510">
			 <ele>739</ele>
			<time>2017-11-10T22:44:44Z</time>
			</trkpt>
		
			<trkpt lat="44.461040" lon="8.097390">
			 <ele>740</ele>
			<time>2017-11-10T22:46:44Z</time>
			</trkpt>
		
			<trkpt lat="44.461020" lon="8.097140">
			 <ele>744</ele>
			<time>2017-11-10T22:48:44Z</time>
			</trkpt>
		
			<trkpt lat="44.461000" lon="8.096660">
			 <ele>749</ele>
			<time>2017-11-10T22:50:44Z</time>
			</trkpt>
		
			<trkpt lat="44.460990" lon="8.096260">
			 <ele>753</ele>
			<time>2017-11-10T22:52:44Z</time>
			</trkpt>
		
			<trkpt lat="44.460990" lon="8.095760">
			 <ele>757</ele>
			<time>2017-11-10T22:54:44Z</time>
			</trkpt>
		
			<trkpt lat="44.461000" lon="8.095370">
			 <ele>760</ele>
			<time>2017-11-10T22:56:44Z</time>
			</trkpt>
		
			<trkpt lat="44.461010" lon="8.094980">
			 <ele>763</ele>
			<time>2017-11-10T22:58:44Z</time>
			</trkpt>
		
			<trkpt lat="44.461030" lon="8.094760">
			 <ele>762</ele>
			<time>2017-11-10T23:00:44Z</time>
			</trkpt>
		
			<trkpt lat="44.461050" lon="8.094640">
			 <ele>761</ele>
			<time>2017-11-10T23:02:44Z</time>
			</trkpt>
		
			<trkpt lat="44.461100" lon="8.094510">
			 <ele>762</ele>
			<time>2017-11-10T23:04:44Z</time>
			</trkpt>
		
			<trkpt lat="44.461140" lon="8.094420">
			 <ele>762</ele>
			<time>2017-11-10T23:06:44Z</time>
			</trkpt>
		
			<trkpt lat="44.461220" lon="8.094290">
			 <ele>763</ele>
			<time>2017-11-10T23:08:44Z</time>
			</trkpt>
		
			<trkpt lat="44.461300" lon="8.094210">
			 <ele>764</ele>
			<time>2017-11-10T23:10:44Z</time>
			</trkpt>
		
			<trkpt lat="44.461450" lon="8.094080">
			 <ele>766</ele>
			<time>2017-11-10T23:12:44Z</time>
			</trkpt>
		
			<trkpt lat="44.461790" lon="8.093920">
			 <ele>770</ele>
			<time>2017-11-10T23:14:44Z</time>
			</trkpt>
		
			<trkpt lat="44.462020" lon="8.093810">
			 <ele>771</ele>
			<time>2017-11-10T23:16:44Z</time>
			</trkpt>
		
			<trkpt lat="44.462240" lon="8.093730">
			 <ele>773</ele>
			<time>2017-11-10T23:18:44Z</time>
			</trkpt>
		
			<trkpt lat="44.462420" lon="8.093680">
			 <ele>775</ele>
			<time>2017-11-10T23:20:44Z</time>
			</trkpt>
		
			<trkpt lat="44.462540" lon="8.093670">
			 <ele>777</ele>
			<time>2017-11-10T23:22:44Z</time>
			</trkpt>
		
			<trkpt lat="44.462660" lon="8.093680">
			 <ele>778</ele>
			<time>2017-11-10T23:24:44Z</time>
			</trkpt>
		
			<trkpt lat="44.462910" lon="8.093730">
			 <ele>779</ele>
			<time>2017-11-10T23:26:44Z</time>
			</trkpt>
		
			<trkpt lat="44.463250" lon="8.093850">
			 <ele>782</ele>
			<time>2017-11-10T23:28:44Z</time>
			</trkpt>
		
			<trkpt lat="44.463370" lon="8.093870">
			 <ele>782</ele>
			<time>2017-11-10T23:30:44Z</time>
			</trkpt>
		
			<trkpt lat="44.463470" lon="8.093880">
			 <ele>782</ele>
			<time>2017-11-10T23:32:44Z</time>
			</trkpt>
		
			<trkpt lat="44.463520" lon="8.093880">
			 <ele>783</ele>
			<time>2017-11-10T23:34:44Z</time>
			</trkpt>
		
			<trkpt lat="44.463640" lon="8.093860">
			 <ele>783</ele>
			<time>2017-11-10T23:36:44Z</time>
			</trkpt>
		
			<trkpt lat="44.463760" lon="8.093820">
			 <ele>784</ele>
			<time>2017-11-10T23:38:44Z</time>
			</trkpt>
		
			<trkpt lat="44.463880" lon="8.093780">
			 <ele>785</ele>
			<time>2017-11-10T23:40:44Z</time>
			</trkpt>
		
			<trkpt lat="44.464260" lon="8.093620">
			 <ele>789</ele>
			<time>2017-11-10T23:42:44Z</time>
			</trkpt>
		
			<trkpt lat="44.464550" lon="8.093510">
			 <ele>793</ele>
			<time>2017-11-10T23:44:44Z</time>
			</trkpt>
		
			<trkpt lat="44.464640" lon="8.093450">
			 <ele>795</ele>
			<time>2017-11-10T23:46:44Z</time>
			</trkpt>
		
			<trkpt lat="44.464710" lon="8.093370">
			 <ele>798</ele>
			<time>2017-11-10T23:48:44Z</time>
			</trkpt>
		
			<trkpt lat="44.464750" lon="8.093310">
			 <ele>799</ele>
			<time>2017-11-10T23:50:44Z</time>
			</trkpt>
		
			<trkpt lat="44.464780" lon="8.093250">
			 <ele>800</ele>
			<time>2017-11-10T23:52:44Z</time>
			</trkpt>
		
			<trkpt lat="44.464800" lon="8.093180">
			 <ele>801</ele>
			<time>2017-11-10T23:54:44Z</time>
			</trkpt>
		
			<trkpt lat="44.464820" lon="8.093120">
			 <ele>802</ele>
			<time>2017-11-10T23:56:44Z</time>
			</trkpt>
		
			<trkpt lat="44.464830" lon="8.092950">
			 <ele>804</ele>
			<time>2017-11-10T23:58:44Z</time>
			</trkpt>
		
			<trkpt lat="44.464840" lon="8.092830">
			 <ele>806</ele>
			<time>2017-11-11T00:00:44Z</time>
			</trkpt>
		
			<trkpt lat="44.464840" lon="8.092650">
			 <ele>808</ele>
			<time>2017-11-11T00:02:44Z</time>
			</trkpt>
		
			<trkpt lat="44.464840" lon="8.092090">
			 <ele>813</ele>
			<time>2017-11-11T00:04:44Z</time>
			</trkpt>
		
			<trkpt lat="44.464790" lon="8.091190">
			 <ele>816</ele>
			<time>2017-11-11T00:06:44Z</time>
			</trkpt>
		
			<trkpt lat="44.464820" lon="8.091070">
			 <ele>817</ele>
			<time>2017-11-11T00:08:44Z</time>
			</trkpt>
		
			<trkpt lat="44.464850" lon="8.090980">
			 <ele>818</ele>
			<time>2017-11-11T00:10:44Z</time>
			</trkpt>
		
			<trkpt lat="44.464920" lon="8.090870">
			 <ele>821</ele>
			<time>2017-11-11T00:12:44Z</time>
			</trkpt>
		
			<trkpt lat="44.465000" lon="8.090770">
			 <ele>822</ele>
			<time>2017-11-11T00:14:44Z</time>
			</trkpt>
		
			<trkpt lat="44.465170" lon="8.090640">
			 <ele>825</ele>
			<time>2017-11-11T00:16:44Z</time>
			</trkpt>
		
			<trkpt lat="44.465190" lon="8.090630">
			 <ele>825</ele>
			<time>2017-11-11T00:18:44Z</time>
			</trkpt>
		
			<trkpt lat="44.465290" lon="8.090600">
			 <ele>827</ele>
			<time>2017-11-11T00:20:44Z</time>
			</trkpt>
		
			<trkpt lat="44.465440" lon="8.090500">
			 <ele>829</ele>
			<time>2017-11-11T00:22:44Z</time>
			</trkpt>
		
			<trkpt lat="44.465530" lon="8.090450">
			 <ele>830</ele>
			<time>2017-11-11T00:24:44Z</time>
			</trkpt>
		
			<trkpt lat="44.465640" lon="8.090390">
			 <ele>831</ele>
			<time>2017-11-11T00:26:44Z</time>
			</trkpt>
		
			<trkpt lat="44.465820" lon="8.090180">
			 <ele>833</ele>
			<time>2017-11-11T00:28:44Z</time>
			</trkpt>
		
			<trkpt lat="44.465910" lon="8.090070">
			 <ele>834</ele>
			<time>2017-11-11T00:30:44Z</time>
			</trkpt>
		
			<trkpt lat="44.466010" lon="8.089920">
			 <ele>835</ele>
			<time>2017-11-11T00:32:44Z</time>
			</trkpt>
		
			<trkpt lat="44.466090" lon="8.089770">
			 <ele>836</ele>
			<time>2017-11-11T00:34:44Z</time>
			</trkpt>
		
			<trkpt lat="44.466250" lon="8.089440">
			 <ele>838</ele>
			<time>2017-11-11T00:36:44Z</time>
			</trkpt>
		
			<trkpt lat="44.466400" lon="8.089090">
			 <ele>841</ele>
			<time>2017-11-11T00:38:44Z</time>
			</trkpt>
		
			<trkpt lat="44.466460" lon="8.088990">
			 <ele>842</ele>
			<time>2017-11-11T00:40:44Z</time>
			</trkpt>
		
			<trkpt lat="44.466460" lon="8.088990">
			 <ele>842</ele>
			<time>2017-11-11T00:42:44Z</time>
			</trkpt>
		
			<trkpt lat="44.466470" lon="8.089090">
			 <ele>843</ele>
			<time>2017-11-11T00:44:44Z</time>
			</trkpt>
		
			<trkpt lat="44.466480" lon="8.089180">
			 <ele>845</ele>
			<time>2017-11-11T00:46:44Z</time>
			</trkpt>
		
			<trkpt lat="44.466490" lon="8.089220">
			 <ele>845</ele>
			<time>2017-11-11T00:48:44Z</time>
			</trkpt>
		
			<trkpt lat="44.466490" lon="8.089270">
			 <ele>845</ele>
			<time>2017-11-11T00:50:44Z</time>
			</trkpt>
		
			<trkpt lat="44.466490" lon="8.089330">
			 <ele>846</ele>
			<time>2017-11-11T00:52:44Z</time>
			</trkpt>
		
			<trkpt lat="44.466490" lon="8.089400">
			 <ele>846</ele>
			<time>2017-11-11T00:54:44Z</time>
			</trkpt>
		
			<trkpt lat="44.466480" lon="8.089500">
			 <ele>846</ele>
			<time>2017-11-11T00:56:44Z</time>
			</trkpt>
		
			<trkpt lat="44.466460" lon="8.089640">
			 <ele>846</ele>
			<time>2017-11-11T00:58:44Z</time>
			</trkpt>
		
			<trkpt lat="44.466460" lon="8.089770">
			 <ele>847</ele>
			<time>2017-11-11T01:00:44Z</time>
			</trkpt>
		
			<trkpt lat="44.466460" lon="8.089860">
			 <ele>848</ele>
			<time>2017-11-11T01:02:44Z</time>
			</trkpt>
		
			<trkpt lat="44.466470" lon="8.090050">
			 <ele>849</ele>
			<time>2017-11-11T01:04:44Z</time>
			</trkpt>
		
			<trkpt lat="44.466480" lon="8.090110">
			 <ele>849</ele>
			<time>2017-11-11T01:06:44Z</time>
			</trkpt>
		
			<trkpt lat="44.466500" lon="8.090190">
			 <ele>850</ele>
			<time>2017-11-11T01:08:44Z</time>
			</trkpt>
		
			<trkpt lat="44.466530" lon="8.090260">
			 <ele>851</ele>
			<time>2017-11-11T01:10:44Z</time>
			</trkpt>
		
			<trkpt lat="44.466550" lon="8.090300">
			 <ele>852</ele>
			<time>2017-11-11T01:12:44Z</time>
			</trkpt>
		
			<trkpt lat="44.466570" lon="8.090340">
			 <ele>852</ele>
			<time>2017-11-11T01:14:44Z</time>
			</trkpt>
		
			<trkpt lat="44.466570" lon="8.090340">
			 <ele>852</ele>
			<time>2017-11-11T01:16:44Z</time>
			</trkpt>
		
			<trkpt lat="44.466670" lon="8.090320">
			 <ele>855</ele>
			<time>2017-11-11T01:18:44Z</time>
			</trkpt>
		
			<trkpt lat="44.466740" lon="8.090290">
			 <ele>854</ele>
			<time>2017-11-11T01:20:44Z</time>
			</trkpt>
		
			<trkpt lat="44.466860" lon="8.090220">
			 <ele>852</ele>
			<time>2017-11-11T01:22:44Z</time>
			</trkpt>
		
			<trkpt lat="44.466910" lon="8.090180">
			 <ele>851</ele>
			<time>2017-11-11T01:24:44Z</time>
			</trkpt>
		
			<trkpt lat="44.466980" lon="8.090100">
			 <ele>851</ele>
			<time>2017-11-11T01:26:44Z</time>
			</trkpt>
		
			<trkpt lat="44.467020" lon="8.090030">
			 <ele>851</ele>
			<time>2017-11-11T01:28:44Z</time>
			</trkpt>
		
			<trkpt lat="44.467050" lon="8.089910">
			 <ele>851</ele>
			<time>2017-11-11T01:30:44Z</time>
			</trkpt>
		
			<trkpt lat="44.467130" lon="8.089640">
			 <ele>852</ele>
			<time>2017-11-11T01:32:44Z</time>
			</trkpt>
		
			<trkpt lat="44.467220" lon="8.089270">
			 <ele>855</ele>
			<time>2017-11-11T01:34:44Z</time>
			</trkpt>
		
			<trkpt lat="44.467300" lon="8.088990">
			 <ele>858</ele>
			<time>2017-11-11T01:36:44Z</time>
			</trkpt>
		
			<trkpt lat="44.467400" lon="8.088670">
			 <ele>861</ele>
			<time>2017-11-11T01:38:44Z</time>
			</trkpt>
		
			<trkpt lat="44.467500" lon="8.088390">
			 <ele>865</ele>
			<time>2017-11-11T01:40:44Z</time>
			</trkpt>
		
			<trkpt lat="44.467540" lon="8.088260">
			 <ele>864</ele>
			<time>2017-11-11T01:42:44Z</time>
			</trkpt>
		
			<trkpt lat="44.467590" lon="8.088060">
			 <ele>864</ele>
			<time>2017-11-11T01:44:44Z</time>
			</trkpt>
		
			<trkpt lat="44.467650" lon="8.087770">
			 <ele>864</ele>
			<time>2017-11-11T01:46:44Z</time>
			</trkpt>
		
			<trkpt lat="44.467690" lon="8.087650">
			 <ele>864</ele>
			<time>2017-11-11T01:48:44Z</time>
			</trkpt>
		
			<trkpt lat="44.467720" lon="8.087470">
			 <ele>866</ele>
			<time>2017-11-11T01:50:44Z</time>
			</trkpt>
		
			<trkpt lat="44.467710" lon="8.087170">
			 <ele>869</ele>
			<time>2017-11-11T01:52:44Z</time>
			</trkpt>
		
			<trkpt lat="44.467710" lon="8.086940">
			 <ele>871</ele>
			<time>2017-11-11T01:54:44Z</time>
			</trkpt>
		
			<trkpt lat="44.467700" lon="8.086870">
			 <ele>872</ele>
			<time>2017-11-11T01:56:44Z</time>
			</trkpt>
		
			<trkpt lat="44.467690" lon="8.086810">
			 <ele>873</ele>
			<time>2017-11-11T01:58:44Z</time>
			</trkpt>
		
			<trkpt lat="44.467650" lon="8.086690">
			 <ele>873</ele>
			<time>2017-11-11T02:00:44Z</time>
			</trkpt>
		
			<trkpt lat="44.467630" lon="8.086580">
			 <ele>874</ele>
			<time>2017-11-11T02:02:44Z</time>
			</trkpt>
		
			<trkpt lat="44.467610" lon="8.086460">
			 <ele>873</ele>
			<time>2017-11-11T02:04:44Z</time>
			</trkpt>
		
			<trkpt lat="44.467610" lon="8.086380">
			 <ele>873</ele>
			<time>2017-11-11T02:06:44Z</time>
			</trkpt>
		
			<trkpt lat="44.467610" lon="8.086300">
			 <ele>874</ele>
			<time>2017-11-11T02:08:44Z</time>
			</trkpt>
		
			<trkpt lat="44.467620" lon="8.086260">
			 <ele>874</ele>
			<time>2017-11-11T02:10:44Z</time>
			</trkpt>
		
			<trkpt lat="44.467630" lon="8.086210">
			 <ele>874</ele>
			<time>2017-11-11T02:12:44Z</time>
			</trkpt>
		
			<trkpt lat="44.467670" lon="8.086120">
			 <ele>875</ele>
			<time>2017-11-11T02:14:44Z</time>
			</trkpt>
		
			<trkpt lat="44.467720" lon="8.086010">
			 <ele>876</ele>
			<time>2017-11-11T02:16:44Z</time>
			</trkpt>
		
			<trkpt lat="44.467760" lon="8.085940">
			 <ele>877</ele>
			<time>2017-11-11T02:18:44Z</time>
			</trkpt>
		
				</trkseg>
			   </trk>
			 </gpx>
	